sensor_id;sensor_type;location;lat;lon;timestamp;P1;durP1;ratioP1;P2;durP2;ratioP2
9789;SDS011;4934;50.852;8.098;2024-01-10T00:02:00;21.50;;;6.33;;
9789;SDS011;4934;50.852;8.098;2024-01-10T00:04:26;24.40;;;6.77;;
9789;SDS011;4934;50.852;8.098;2024-01-10T00:06:52;18.83;;;6.27;;
9789;SDS011;4934;50.852;8.098;2024-01-10T00:09:17;24.10;;;7.13;;
9789;SDS011;4934;50.852;8.098;2024-01-10T00:11:43;27.90;;;7.83;;
9789;SDS011;4934;50.852;8.098;2024-01-10T00:14:08;19.50;;;6.57;;
9789;SDS011;4934;50.852;8.098;2024-01-10T00:16:34;18.47;;;5.93;;
9789;SDS011;4934;50.852;8.098;2024-01-10T00:19:00;21.53;;;7.53;;
9789;SDS011;4934;50.852;8.098;2024-01-10T00:21:25;26.00;;;7.37;;
9789;SDS011;4934;50.852;8.098;2024-01-10T00:23:51;21.13;;;6.97;;
9789;SDS011;4934;50.852;8.098;2024-01-10T00:26:17;25.60;;;7.00;;
9789;SDS011;4934;50.852;8.098;2024-01-10T00:28:42;21.73;;;6.90;;
9789;SDS011;4934;50.852;8.098;2024-01-10T00:31:10;21.63;;;6.57;;
9789;SDS011;4934;50.852;8.098;2024-01-10T00:33:37;20.33;;;6.80;;
9789;SDS011;4934;50.852;8.098;2024-01-10T00:36:09;25.60;;;7.30;;
9789;SDS011;4934;50.852;8.098;2024-01-10T00:38:36;23.50;;;6.50;;
9789;SDS011;4934;50.852;8.098;2024-01-10T00:41:02;21.93;;;6.90;;
9789;SDS011;4934;50.852;8.098;2024-01-10T00:43:27;15.60;;;6.33;;
9789;SDS011;4934;50.852;8.098;2024-01-10T00:45:53;18.23;;;6.30;;
9789;SDS011;4934;50.852;8.098;2024-01-10T00:48:19;19.43;;;5.83;;
9789;SDS011;4934;50.852;8.098;2024-01-10T00:50:44;18.53;;;7.03;;
9789;SDS011;4934;50.852;8.098;2024-01-10T00:53:10;24.17;;;6.87;;
9789;SDS011;4934;50.852;8.098;2024-01-10T00:55:36;16.70;;;6.40;;
9789;SDS011;4934;50.852;8.098;2024-01-10T00:58:01;20.97;;;6.53;;
9789;SDS011;4934;50.852;8.098;2024-01-10T01:00:27;21.40;;;6.77;;
9789;SDS011;4934;50.852;8.098;2024-01-10T01:02:53;22.33;;;6.97;;
9789;SDS011;4934;50.852;8.098;2024-01-10T01:05:18;23.07;;;6.87;;
9789;SDS011;4934;50.852;8.098;2024-01-10T01:07:44;19.33;;;6.87;;
9789;SDS011;4934;50.852;8.098;2024-01-10T01:10:09;18.80;;;7.03;;
9789;SDS011;4934;50.852;8.098;2024-01-10T01:12:35;19.00;;;6.20;;
9789;SDS011;4934;50.852;8.098;2024-01-10T01:15:01;24.57;;;6.87;;
9789;SDS011;4934;50.852;8.098;2024-01-10T01:17:27;20.50;;;5.63;;
9789;SDS011;4934;50.852;8.098;2024-01-10T01:19:52;22.80;;;6.40;;
9789;SDS011;4934;50.852;8.098;2024-01-10T01:22:18;13.67;;;5.27;;
9789;SDS011;4934;50.852;8.098;2024-01-10T01:24:43;18.03;;;5.43;;
9789;SDS011;4934;50.852;8.098;2024-01-10T01:27:09;15.67;;;6.37;;
9789;SDS011;4934;50.852;8.098;2024-01-10T01:29:34;17.60;;;5.90;;
9789;SDS011;4934;50.852;8.098;2024-01-10T01:32:00;17.77;;;5.87;;
9789;SDS011;4934;50.852;8.098;2024-01-10T01:34:25;18.63;;;6.93;;
9789;SDS011;4934;50.852;8.098;2024-01-10T01:36:51;18.00;;;6.03;;
9789;SDS011;4934;50.852;8.098;2024-01-10T01:39:17;20.20;;;5.80;;
9789;SDS011;4934;50.852;8.098;2024-01-10T01:41:43;23.60;;;6.47;;
9789;SDS011;4934;50.852;8.098;2024-01-10T01:44:16;19.40;;;6.80;;
9789;SDS011;4934;50.852;8.098;2024-01-10T01:46:42;18.90;;;6.07;;
9789;SDS011;4934;50.852;8.098;2024-01-10T01:49:09;26.93;;;7.90;;
9789;SDS011;4934;50.852;8.098;2024-01-10T01:51:35;24.63;;;7.75;;
9789;SDS011;4934;50.852;8.098;2024-01-10T01:54:06;23.05;;;7.35;;
9789;SDS011;4934;50.852;8.098;2024-01-10T01:56:36;19.60;;;6.87;;
9789;SDS011;4934;50.852;8.098;2024-01-10T01:59:04;22.10;;;6.67;;
9789;SDS011;4934;50.852;8.098;2024-01-10T02:01:30;24.87;;;7.33;;
9789;SDS011;4934;50.852;8.098;2024-01-10T02:03:55;24.43;;;7.10;;
9789;SDS011;4934;50.852;8.098;2024-01-10T02:06:21;18.57;;;5.87;;
9789;SDS011;4934;50.852;8.098;2024-01-10T02:08:47;20.47;;;6.70;;
9789;SDS011;4934;50.852;8.098;2024-01-10T02:11:13;21.53;;;5.60;;
9789;SDS011;4934;50.852;8.098;2024-01-10T02:13:38;16.77;;;5.17;;
9789;SDS011;4934;50.852;8.098;2024-01-10T02:16:04;21.33;;;6.13;;
9789;SDS011;4934;50.852;8.098;2024-01-10T02:18:30;18.63;;;5.93;;
9789;SDS011;4934;50.852;8.098;2024-01-10T02:20:56;14.87;;;4.60;;
9789;SDS011;4934;50.852;8.098;2024-01-10T02:23:23;22.80;;;5.83;;
9789;SDS011;4934;50.852;8.098;2024-01-10T02:25:48;17.23;;;5.83;;
9789;SDS011;4934;50.852;8.098;2024-01-10T02:28:14;21.03;;;6.37;;
9789;SDS011;4934;50.852;8.098;2024-01-10T02:30:40;19.10;;;5.57;;
9789;SDS011;4934;50.852;8.098;2024-01-10T02:33:05;17.30;;;5.43;;
9789;SDS011;4934;50.852;8.098;2024-01-10T02:35:31;17.83;;;5.63;;
9789;SDS011;4934;50.852;8.098;2024-01-10T02:37:58;15.83;;;5.07;;
9789;SDS011;4934;50.852;8.098;2024-01-10T02:40:24;18.00;;;5.23;;
9789;SDS011;4934;50.852;8.098;2024-01-10T02:42:51;18.93;;;5.60;;
9789;SDS011;4934;50.852;8.098;2024-01-10T02:45:17;17.17;;;6.17;;
9789;SDS011;4934;50.852;8.098;2024-01-10T02:47:43;16.10;;;5.27;;
9789;SDS011;4934;50.852;8.098;2024-01-10T02:50:09;17.63;;;5.57;;
9789;SDS011;4934;50.852;8.098;2024-01-10T02:52:35;17.37;;;5.10;;
9789;SDS011;4934;50.852;8.098;2024-01-10T02:55:00;18.43;;;5.63;;
9789;SDS011;4934;50.852;8.098;2024-01-10T02:57:26;22.20;;;6.37;;
9789;SDS011;4934;50.852;8.098;2024-01-10T02:59:51;16.37;;;5.03;;
9789;SDS011;4934;50.852;8.098;2024-01-10T03:02:17;14.87;;;5.53;;
9789;SDS011;4934;50.852;8.098;2024-01-10T03:04:43;15.00;;;5.80;;
9789;SDS011;4934;50.852;8.098;2024-01-10T03:07:09;17.40;;;6.27;;
9789;SDS011;4934;50.852;8.098;2024-01-10T03:09:35;19.00;;;5.20;;
9789;SDS011;4934;50.852;8.098;2024-01-10T03:12:01;19.80;;;6.20;;
9789;SDS011;4934;50.852;8.098;2024-01-10T03:14:38;22.03;;;6.70;;
9789;SDS011;4934;50.852;8.098;2024-01-10T03:17:04;18.20;;;6.38;;
9789;SDS011;4934;50.852;8.098;2024-01-10T03:19:30;21.07;;;6.70;;
9789;SDS011;4934;50.852;8.098;2024-01-10T03:21:55;22.87;;;5.67;;
9789;SDS011;4934;50.852;8.098;2024-01-10T03:24:21;19.23;;;5.27;;
9789;SDS011;4934;50.852;8.098;2024-01-10T03:26:49;18.75;;;6.15;;
9789;SDS011;4934;50.852;8.098;2024-01-10T03:29:14;17.67;;;5.93;;
9789;SDS011;4934;50.852;8.098;2024-01-10T03:31:40;22.10;;;6.20;;
9789;SDS011;4934;50.852;8.098;2024-01-10T03:34:05;14.97;;;6.20;;
9789;SDS011;4934;50.852;8.098;2024-01-10T03:36:31;22.90;;;6.60;;
9789;SDS011;4934;50.852;8.098;2024-01-10T03:38:56;24.50;;;6.70;;
9789;SDS011;4934;50.852;8.098;2024-01-10T03:41:22;23.07;;;6.57;;
9789;SDS011;4934;50.852;8.098;2024-01-10T03:43:48;25.30;;;7.63;;
9789;SDS011;4934;50.852;8.098;2024-01-10T03:46:13;20.27;;;6.10;;
9789;SDS011;4934;50.852;8.098;2024-01-10T03:48:40;17.67;;;6.43;;
9789;SDS011;4934;50.852;8.098;2024-01-10T03:51:13;21.83;;;5.87;;
9789;SDS011;4934;50.852;8.098;2024-01-10T03:53:39;19.40;;;6.53;;
9789;SDS011;4934;50.852;8.098;2024-01-10T03:56:05;25.87;;;7.60;;
9789;SDS011;4934;50.852;8.098;2024-01-10T03:58:31;20.13;;;5.53;;
9789;SDS011;4934;50.852;8.098;2024-01-10T04:00:57;16.53;;;6.27;;
9789;SDS011;4934;50.852;8.098;2024-01-10T04:03:22;24.97;;;6.47;;
9789;SDS011;4934;50.852;8.098;2024-01-10T04:05:48;18.63;;;5.73;;
9789;SDS011;4934;50.852;8.098;2024-01-10T04:08:13;19.27;;;6.40;;
9789;SDS011;4934;50.852;8.098;2024-01-10T04:10:39;19.30;;;5.93;;
9789;SDS011;4934;50.852;8.098;2024-01-10T04:13:04;22.30;;;7.67;;
9789;SDS011;4934;50.852;8.098;2024-01-10T04:15:30;24.70;;;7.00;;
9789;SDS011;4934;50.852;8.098;2024-01-10T04:17:55;21.70;;;6.47;;
9789;SDS011;4934;50.852;8.098;2024-01-10T04:20:21;21.57;;;6.70;;
9789;SDS011;4934;50.852;8.098;2024-01-10T04:22:47;24.00;;;7.80;;
9789;SDS011;4934;50.852;8.098;2024-01-10T04:25:12;29.90;;;7.87;;
9789;SDS011;4934;50.852;8.098;2024-01-10T04:27:38;22.23;;;6.40;;
9789;SDS011;4934;50.852;8.098;2024-01-10T04:30:04;17.73;;;6.37;;
9789;SDS011;4934;50.852;8.098;2024-01-10T04:32:30;18.70;;;7.53;;
9789;SDS011;4934;50.852;8.098;2024-01-10T04:34:56;20.80;;;6.53;;
9789;SDS011;4934;50.852;8.098;2024-01-10T04:37:21;25.33;;;7.67;;
9789;SDS011;4934;50.852;8.098;2024-01-10T04:39:47;23.30;;;7.03;;
9789;SDS011;4934;50.852;8.098;2024-01-10T04:42:13;24.23;;;7.00;;
9789;SDS011;4934;50.852;8.098;2024-01-10T04:44:39;23.83;;;7.30;;
9789;SDS011;4934;50.852;8.098;2024-01-10T04:47:05;22.70;;;7.13;;
9789;SDS011;4934;50.852;8.098;2024-01-10T04:49:30;20.73;;;7.50;;
9789;SDS011;4934;50.852;8.098;2024-01-10T04:51:56;22.43;;;7.33;;
9789;SDS011;4934;50.852;8.098;2024-01-10T04:54:22;20.87;;;6.73;;
9789;SDS011;4934;50.852;8.098;2024-01-10T04:56:48;19.17;;;6.70;;
9789;SDS011;4934;50.852;8.098;2024-01-10T04:59:14;27.40;;;7.27;;
9789;SDS011;4934;50.852;8.098;2024-01-10T05:01:39;23.37;;;6.80;;
9789;SDS011;4934;50.852;8.098;2024-01-10T05:04:05;26.97;;;8.17;;
9789;SDS011;4934;50.852;8.098;2024-01-10T05:06:31;24.30;;;8.87;;
9789;SDS011;4934;50.852;8.098;2024-01-10T05:08:57;22.80;;;7.30;;
9789;SDS011;4934;50.852;8.098;2024-01-10T05:11:23;27.37;;;8.93;;
9789;SDS011;4934;50.852;8.098;2024-01-10T05:13:50;45.90;;;15.10;;
9789;SDS011;4934;50.852;8.098;2024-01-10T05:16:16;30.87;;;9.17;;
9789;SDS011;4934;50.852;8.098;2024-01-10T05:18:42;25.73;;;8.30;;
9789;SDS011;4934;50.852;8.098;2024-01-10T05:21:08;21.90;;;8.70;;
9789;SDS011;4934;50.852;8.098;2024-01-10T05:23:33;30.97;;;9.17;;
9789;SDS011;4934;50.852;8.098;2024-01-10T05:25:59;23.30;;;7.50;;
9789;SDS011;4934;50.852;8.098;2024-01-10T05:28:25;24.87;;;8.17;;
9789;SDS011;4934;50.852;8.098;2024-01-10T05:30:50;31.70;;;9.03;;
9789;SDS011;4934;50.852;8.098;2024-01-10T05:33:16;25.07;;;7.67;;
9789;SDS011;4934;50.852;8.098;2024-01-10T05:35:42;25.00;;;7.30;;
9789;SDS011;4934;50.852;8.098;2024-01-10T05:38:07;25.57;;;7.80;;
9789;SDS011;4934;50.852;8.098;2024-01-10T05:40:33;19.93;;;7.00;;
9789;SDS011;4934;50.852;8.098;2024-01-10T05:42:58;24.80;;;8.23;;
9789;SDS011;4934;50.852;8.098;2024-01-10T05:45:24;26.97;;;8.43;;
9789;SDS011;4934;50.852;8.098;2024-01-10T05:47:51;27.17;;;7.80;;
9789;SDS011;4934;50.852;8.098;2024-01-10T05:50:17;23.73;;;7.13;;
9789;SDS011;4934;50.852;8.098;2024-01-10T05:52:42;21.07;;;7.90;;
9789;SDS011;4934;50.852;8.098;2024-01-10T05:55:08;25.60;;;8.37;;
9789;SDS011;4934;50.852;8.098;2024-01-10T05:57:35;24.77;;;8.30;;
9789;SDS011;4934;50.852;8.098;2024-01-10T06:00:01;25.53;;;7.97;;
9789;SDS011;4934;50.852;8.098;2024-01-10T06:02:28;21.03;;;7.13;;
9789;SDS011;4934;50.852;8.098;2024-01-10T06:04:53;26.50;;;7.70;;
9789;SDS011;4934;50.852;8.098;2024-01-10T06:07:20;28.73;;;9.00;;
9789;SDS011;4934;50.852;8.098;2024-01-10T06:09:46;30.03;;;9.13;;
9789;SDS011;4934;50.852;8.098;2024-01-10T06:12:12;23.40;;;7.77;;
9789;SDS011;4934;50.852;8.098;2024-01-10T06:14:38;30.67;;;9.23;;
9789;SDS011;4934;50.852;8.098;2024-01-10T06:17:04;27.73;;;8.20;;
9789;SDS011;4934;50.852;8.098;2024-01-10T06:19:31;32.93;;;8.90;;
9789;SDS011;4934;50.852;8.098;2024-01-10T06:21:57;29.37;;;9.17;;
9789;SDS011;4934;50.852;8.098;2024-01-10T06:24:23;27.80;;;8.00;;
9789;SDS011;4934;50.852;8.098;2024-01-10T06:26:48;28.20;;;8.33;;
9789;SDS011;4934;50.852;8.098;2024-01-10T06:29:17;27.35;;;8.10;;
9789;SDS011;4934;50.852;8.098;2024-01-10T06:31:45;25.90;;;9.23;;
9789;SDS011;4934;50.852;8.098;2024-01-10T06:34:10;28.23;;;8.80;;
9789;SDS011;4934;50.852;8.098;2024-01-10T06:36:36;27.87;;;8.17;;
9789;SDS011;4934;50.852;8.098;2024-01-10T06:39:02;28.97;;;8.03;;
9789;SDS011;4934;50.852;8.098;2024-01-10T06:41:27;23.07;;;7.77;;
9789;SDS011;4934;50.852;8.098;2024-01-10T06:43:53;26.63;;;8.53;;
9789;SDS011;4934;50.852;8.098;2024-01-10T06:46:19;21.43;;;8.80;;
9789;SDS011;4934;50.852;8.098;2024-01-10T06:48:46;20.53;;;8.73;;
9789;SDS011;4934;50.852;8.098;2024-01-10T06:51:13;32.57;;;9.33;;
9789;SDS011;4934;50.852;8.098;2024-01-10T06:53:39;34.50;;;9.27;;
9789;SDS011;4934;50.852;8.098;2024-01-10T06:56:05;24.90;;;8.80;;
9789;SDS011;4934;50.852;8.098;2024-01-10T06:58:32;27.87;;;8.53;;
9789;SDS011;4934;50.852;8.098;2024-01-10T07:00:58;26.13;;;8.53;;
9789;SDS011;4934;50.852;8.098;2024-01-10T07:03:25;30.23;;;8.93;;
9789;SDS011;4934;50.852;8.098;2024-01-10T07:05:51;23.03;;;7.77;;
9789;SDS011;4934;50.852;8.098;2024-01-10T07:08:17;27.93;;;8.53;;
9789;SDS011;4934;50.852;8.098;2024-01-10T07:10:42;27.00;;;8.53;;
9789;SDS011;4934;50.852;8.098;2024-01-10T07:13:08;26.97;;;8.90;;
9789;SDS011;4934;50.852;8.098;2024-01-10T07:15:34;34.37;;;9.73;;
9789;SDS011;4934;50.852;8.098;2024-01-10T07:18:01;27.87;;;9.30;;
9789;SDS011;4934;50.852;8.098;2024-01-10T07:20:27;28.13;;;8.50;;
9789;SDS011;4934;50.852;8.098;2024-01-10T07:22:52;37.20;;;10.27;;
9789;SDS011;4934;50.852;8.098;2024-01-10T07:25:18;34.40;;;11.07;;
9789;SDS011;4934;50.852;8.098;2024-01-10T07:27:46;32.53;;;10.87;;
9789;SDS011;4934;50.852;8.098;2024-01-10T07:30:11;26.20;;;7.87;;
9789;SDS011;4934;50.852;8.098;2024-01-10T07:32:40;32.95;;;11.10;;
9789;SDS011;4934;50.852;8.098;2024-01-10T07:35:10;38.63;;;10.57;;
9789;SDS011;4934;50.852;8.098;2024-01-10T07:37:44;33.33;;;9.27;;
9789;SDS011;4934;50.852;8.098;2024-01-10T07:40:10;38.10;;;12.30;;
9789;SDS011;4934;50.852;8.098;2024-01-10T07:42:36;40.33;;;12.33;;
9789;SDS011;4934;50.852;8.098;2024-01-10T07:45:02;38.57;;;10.10;;
9789;SDS011;4934;50.852;8.098;2024-01-10T07:47:32;28.40;;;9.30;;
9789;SDS011;4934;50.852;8.098;2024-01-10T07:50:05;36.40;;;9.23;;
9789;SDS011;4934;50.852;8.098;2024-01-10T07:52:35;29.20;;;9.40;;
9789;SDS011;4934;50.852;8.098;2024-01-10T07:55:01;29.87;;;10.50;;
9789;SDS011;4934;50.852;8.098;2024-01-10T07:57:30;28.50;;;9.45;;
9789;SDS011;4934;50.852;8.098;2024-01-10T07:59:56;37.07;;;10.23;;
9789;SDS011;4934;50.852;8.098;2024-01-10T08:02:21;45.20;;;12.63;;
9789;SDS011;4934;50.852;8.098;2024-01-10T08:04:47;35.03;;;11.17;;
9789;SDS011;4934;50.852;8.098;2024-01-10T08:07:13;42.13;;;12.33;;
9789;SDS011;4934;50.852;8.098;2024-01-10T08:09:38;36.17;;;12.00;;
9789;SDS011;4934;50.852;8.098;2024-01-10T08:12:04;41.63;;;13.10;;
9789;SDS011;4934;50.852;8.098;2024-01-10T08:14:30;38.40;;;11.30;;
9789;SDS011;4934;50.852;8.098;2024-01-10T08:16:55;47.50;;;13.80;;
9789;SDS011;4934;50.852;8.098;2024-01-10T08:19:25;37.77;;;11.93;;
9789;SDS011;4934;50.852;8.098;2024-01-10T08:21:54;35.70;;;12.50;;
9789;SDS011;4934;50.852;8.098;2024-01-10T08:24:20;32.93;;;11.60;;
9789;SDS011;4934;50.852;8.098;2024-01-10T08:26:53;35.47;;;11.67;;
9789;SDS011;4934;50.852;8.098;2024-01-10T08:32:06;39.73;;;10.60;;
9789;SDS011;4934;50.852;8.098;2024-01-10T08:34:31;33.90;;;10.57;;
9789;SDS011;4934;50.852;8.098;2024-01-10T08:36:58;46.10;;;12.80;;
9789;SDS011;4934;50.852;8.098;2024-01-10T08:39:23;45.87;;;12.03;;
9789;SDS011;4934;50.852;8.098;2024-01-10T08:41:51;37.23;;;12.00;;
9789;SDS011;4934;50.852;8.098;2024-01-10T08:44:17;37.20;;;11.53;;
9789;SDS011;4934;50.852;8.098;2024-01-10T08:46:43;40.40;;;12.10;;
9789;SDS011;4934;50.852;8.098;2024-01-10T08:49:09;39.63;;;11.27;;
9789;SDS011;4934;50.852;8.098;2024-01-10T08:51:35;38.60;;;12.70;;
9789;SDS011;4934;50.852;8.098;2024-01-10T08:54:00;43.97;;;13.67;;
9789;SDS011;4934;50.852;8.098;2024-01-10T08:56:26;29.10;;;11.37;;
9789;SDS011;4934;50.852;8.098;2024-01-10T08:58:51;30.00;;;10.57;;
9789;SDS011;4934;50.852;8.098;2024-01-10T09:01:17;38.00;;;11.30;;
9789;SDS011;4934;50.852;8.098;2024-01-10T09:03:44;31.27;;;11.17;;
9789;SDS011;4934;50.852;8.098;2024-01-10T09:06:09;32.53;;;10.33;;
9789;SDS011;4934;50.852;8.098;2024-01-10T09:08:35;38.17;;;10.97;;
9789;SDS011;4934;50.852;8.098;2024-01-10T09:11:01;34.07;;;10.20;;
9789;SDS011;4934;50.852;8.098;2024-01-10T09:13:28;38.27;;;11.50;;
9789;SDS011;4934;50.852;8.098;2024-01-10T09:15:54;40.13;;;12.20;;
9789;SDS011;4934;50.852;8.098;2024-01-10T09:18:20;34.73;;;11.37;;
9789;SDS011;4934;50.852;8.098;2024-01-10T09:20:46;39.00;;;13.00;;
9789;SDS011;4934;50.852;8.098;2024-01-10T09:23:13;39.57;;;13.07;;
9789;SDS011;4934;50.852;8.098;2024-01-10T09:25:39;35.27;;;12.20;;
9789;SDS011;4934;50.852;8.098;2024-01-10T09:28:04;26.60;;;11.07;;
9789;SDS011;4934;50.852;8.098;2024-01-10T09:30:30;40.23;;;11.93;;
9789;SDS011;4934;50.852;8.098;2024-01-10T09:32:56;32.13;;;11.47;;
9789;SDS011;4934;50.852;8.098;2024-01-10T09:35:22;41.13;;;12.93;;
9789;SDS011;4934;50.852;8.098;2024-01-10T09:37:47;36.20;;;11.40;;
9789;SDS011;4934;50.852;8.098;2024-01-10T09:40:16;40.27;;;11.13;;
9789;SDS011;4934;50.852;8.098;2024-01-10T09:42:43;39.23;;;11.73;;
9789;SDS011;4934;50.852;8.098;2024-01-10T09:45:09;39.43;;;11.67;;
9789;SDS011;4934;50.852;8.098;2024-01-10T09:47:39;35.83;;;10.97;;
9789;SDS011;4934;50.852;8.098;2024-01-10T09:50:07;34.80;;;11.18;;
9789;SDS011;4934;50.852;8.098;2024-01-10T09:52:39;37.67;;;11.63;;
9789;SDS011;4934;50.852;8.098;2024-01-10T09:55:12;33.77;;;11.23;;
9789;SDS011;4934;50.852;8.098;2024-01-10T09:57:39;33.40;;;10.97;;
9789;SDS011;4934;50.852;8.098;2024-01-10T10:00:05;35.40;;;12.37;;
9789;SDS011;4934;50.852;8.098;2024-01-10T10:02:35;36.83;;;12.27;;
9789;SDS011;4934;50.852;8.098;2024-01-10T10:05:08;36.83;;;10.97;;
9789;SDS011;4934;50.852;8.098;2024-01-10T10:07:42;41.20;;;12.10;;
9789;SDS011;4934;50.852;8.098;2024-01-10T10:10:15;39.27;;;13.43;;
9789;SDS011;4934;50.852;8.098;2024-01-10T10:12:46;38.27;;;11.37;;
9789;SDS011;4934;50.852;8.098;2024-01-10T10:15:19;38.47;;;13.37;;
9789;SDS011;4934;50.852;8.098;2024-01-10T10:20:28;34.67;;;10.67;;
9789;SDS011;4934;50.852;8.098;2024-01-10T10:25:28;31.83;;;11.40;;
9789;SDS011;4934;50.852;8.098;2024-01-10T10:27:58;43.13;;;14.33;;
9789;SDS011;4934;50.852;8.098;2024-01-10T10:30:25;35.67;;;11.90;;
9789;SDS011;4934;50.852;8.098;2024-01-10T10:32:51;43.90;;;12.80;;
9789;SDS011;4934;50.852;8.098;2024-01-10T10:35:19;41.67;;;12.60;;
9789;SDS011;4934;50.852;8.098;2024-01-10T10:37:47;46.97;;;12.63;;
9789;SDS011;4934;50.852;8.098;2024-01-10T10:40:14;39.30;;;13.93;;
9789;SDS011;4934;50.852;8.098;2024-01-10T10:42:40;38.23;;;12.53;;
9789;SDS011;4934;50.852;8.098;2024-01-10T10:45:16;34.97;;;12.27;;
9789;SDS011;4934;50.852;8.098;2024-01-10T10:47:43;36.03;;;11.70;;
9789;SDS011;4934;50.852;8.098;2024-01-10T10:50:23;35.80;;;12.33;;
9789;SDS011;4934;50.852;8.098;2024-01-10T10:55:20;31.77;;;10.33;;
9789;SDS011;4934;50.852;8.098;2024-01-10T10:57:48;33.70;;;11.13;;
9789;SDS011;4934;50.852;8.098;2024-01-10T11:00:15;38.63;;;12.93;;
9789;SDS011;4934;50.852;8.098;2024-01-10T11:02:43;33.17;;;12.00;;
9789;SDS011;4934;50.852;8.098;2024-01-10T11:05:09;40.13;;;12.07;;
9789;SDS011;4934;50.852;8.098;2024-01-10T11:07:36;30.37;;;11.10;;
9789;SDS011;4934;50.852;8.098;2024-01-10T11:10:03;37.27;;;13.23;;
9789;SDS011;4934;50.852;8.098;2024-01-10T11:26:04;36.07;;;12.87;;
9789;SDS011;4934;50.852;8.098;2024-01-10T11:28:30;38.53;;;12.17;;
9789;SDS011;4934;50.852;8.098;2024-01-10T11:30:56;35.07;;;13.43;;
9789;SDS011;4934;50.852;8.098;2024-01-10T11:33:24;34.97;;;12.47;;
9789;SDS011;4934;50.852;8.098;2024-01-10T11:38:41;32.97;;;12.00;;
9789;SDS011;4934;50.852;8.098;2024-01-10T11:41:20;33.87;;;11.80;;
9789;SDS011;4934;50.852;8.098;2024-01-10T11:44:25;33.20;;;12.00;;
9789;SDS011;4934;50.852;8.098;2024-01-10T11:46:39;32.43;;;11.67;;
9789;SDS011;4934;50.852;8.098;2024-01-10T11:49:09;50.27;;;13.47;;
9789;SDS011;4934;50.852;8.098;2024-01-10T11:51:36;33.33;;;11.67;;
9789;SDS011;4934;50.852;8.098;2024-01-10T11:54:03;37.40;;;13.33;;
9789;SDS011;4934;50.852;8.098;2024-01-10T11:56:38;33.33;;;12.27;;
9789;SDS011;4934;50.852;8.098;2024-01-10T11:59:09;31.27;;;11.73;;
9789;SDS011;4934;50.852;8.098;2024-01-10T12:01:40;31.40;;;10.50;;
9789;SDS011;4934;50.852;8.098;2024-01-10T12:04:06;34.50;;;13.37;;
9789;SDS011;4934;50.852;8.098;2024-01-10T12:06:33;32.20;;;12.03;;
9789;SDS011;4934;50.852;8.098;2024-01-10T12:11:33;37.83;;;12.17;;
9789;SDS011;4934;50.852;8.098;2024-01-10T12:13:59;34.70;;;12.10;;
9789;SDS011;4934;50.852;8.098;2024-01-10T12:16:26;34.37;;;12.83;;
9789;SDS011;4934;50.852;8.098;2024-01-10T12:18:52;34.40;;;12.53;;
9789;SDS011;4934;50.852;8.098;2024-01-10T12:21:17;43.87;;;14.00;;
9789;SDS011;4934;50.852;8.098;2024-01-10T12:23:43;35.13;;;12.70;;
9789;SDS011;4934;50.852;8.098;2024-01-10T12:26:09;36.80;;;12.10;;
9789;SDS011;4934;50.852;8.098;2024-01-10T12:28:39;34.70;;;12.40;;
9789;SDS011;4934;50.852;8.098;2024-01-10T12:31:07;33.85;;;11.68;;
9789;SDS011;4934;50.852;8.098;2024-01-10T12:33:33;37.23;;;12.90;;
9789;SDS011;4934;50.852;8.098;2024-01-10T12:36:03;39.00;;;12.07;;
9789;SDS011;4934;50.852;8.098;2024-01-10T12:38:29;36.97;;;14.30;;
9789;SDS011;4934;50.852;8.098;2024-01-10T12:40:56;36.13;;;13.20;;
9789;SDS011;4934;50.852;8.098;2024-01-10T12:43:22;36.07;;;13.20;;
9789;SDS011;4934;50.852;8.098;2024-01-10T12:45:48;37.03;;;12.70;;
9789;SDS011;4934;50.852;8.098;2024-01-10T12:48:27;36.20;;;12.53;;
9789;SDS011;4934;50.852;8.098;2024-01-10T12:50:52;43.90;;;12.70;;
9789;SDS011;4934;50.852;8.098;2024-01-10T12:53:18;33.07;;;12.20;;
9789;SDS011;4934;50.852;8.098;2024-01-10T12:55:43;34.20;;;12.63;;
9789;SDS011;4934;50.852;8.098;2024-01-10T12:58:09;37.53;;;13.90;;
9789;SDS011;4934;50.852;8.098;2024-01-10T13:00:36;33.60;;;12.50;;
9789;SDS011;4934;50.852;8.098;2024-01-10T13:03:01;32.67;;;13.30;;
9789;SDS011;4934;50.852;8.098;2024-01-10T13:05:28;33.97;;;11.73;;
9789;SDS011;4934;50.852;8.098;2024-01-10T13:07:54;35.33;;;13.00;;
9789;SDS011;4934;50.852;8.098;2024-01-10T13:10:20;37.60;;;12.23;;
9789;SDS011;4934;50.852;8.098;2024-01-10T13:12:45;35.10;;;12.03;;
9789;SDS011;4934;50.852;8.098;2024-01-10T13:15:12;31.37;;;11.73;;
9789;SDS011;4934;50.852;8.098;2024-01-10T13:17:38;30.37;;;11.77;;
9789;SDS011;4934;50.852;8.098;2024-01-10T13:20:03;33.50;;;12.37;;
9789;SDS011;4934;50.852;8.098;2024-01-10T13:22:30;31.87;;;11.80;;
9789;SDS011;4934;50.852;8.098;2024-01-10T13:24:56;36.53;;;12.13;;
9789;SDS011;4934;50.852;8.098;2024-01-10T13:27:21;42.00;;;12.77;;
9789;SDS011;4934;50.852;8.098;2024-01-10T13:29:47;34.97;;;11.90;;
9789;SDS011;4934;50.852;8.098;2024-01-10T13:32:12;33.50;;;11.50;;
9789;SDS011;4934;50.852;8.098;2024-01-10T13:34:38;32.30;;;11.73;;
9789;SDS011;4934;50.852;8.098;2024-01-10T13:37:03;31.67;;;11.40;;
9789;SDS011;4934;50.852;8.098;2024-01-10T13:39:29;27.40;;;11.53;;
9789;SDS011;4934;50.852;8.098;2024-01-10T13:41:55;40.63;;;11.67;;
9789;SDS011;4934;50.852;8.098;2024-01-10T13:44:21;38.00;;;12.90;;
9789;SDS011;4934;50.852;8.098;2024-01-10T13:46:47;29.97;;;11.97;;
9789;SDS011;4934;50.852;8.098;2024-01-10T13:49:15;30.75;;;11.93;;
9789;SDS011;4934;50.852;8.098;2024-01-10T13:51:40;36.27;;;12.80;;
9789;SDS011;4934;50.852;8.098;2024-01-10T13:54:06;35.63;;;12.00;;
9789;SDS011;4934;50.852;8.098;2024-01-10T13:56:32;30.80;;;11.77;;
9789;SDS011;4934;50.852;8.098;2024-01-10T13:58:59;35.77;;;12.93;;
9789;SDS011;4934;50.852;8.098;2024-01-10T14:01:24;32.37;;;13.23;;
9789;SDS011;4934;50.852;8.098;2024-01-10T14:03:51;31.80;;;11.40;;
9789;SDS011;4934;50.852;8.098;2024-01-10T14:06:16;28.27;;;11.47;;
9789;SDS011;4934;50.852;8.098;2024-01-10T14:08:42;30.50;;;11.77;;
9789;SDS011;4934;50.852;8.098;2024-01-10T14:11:10;43.33;;;14.05;;
9789;SDS011;4934;50.852;8.098;2024-01-10T14:13:36;45.03;;;16.83;;
9789;SDS011;4934;50.852;8.098;2024-01-10T14:16:01;38.43;;;13.20;;
9789;SDS011;4934;50.852;8.098;2024-01-10T14:18:27;31.13;;;11.83;;
9789;SDS011;4934;50.852;8.098;2024-01-10T14:20:52;34.63;;;12.87;;
9789;SDS011;4934;50.852;8.098;2024-01-10T14:23:18;35.53;;;11.50;;
9789;SDS011;4934;50.852;8.098;2024-01-10T14:25:43;34.47;;;12.47;;
9789;SDS011;4934;50.852;8.098;2024-01-10T14:28:09;36.33;;;12.57;;
9789;SDS011;4934;50.852;8.098;2024-01-10T14:30:35;30.50;;;12.00;;
9789;SDS011;4934;50.852;8.098;2024-01-10T14:33:00;27.67;;;10.93;;
9789;SDS011;4934;50.852;8.098;2024-01-10T14:35:26;33.03;;;11.67;;
9789;SDS011;4934;50.852;8.098;2024-01-10T14:37:51;34.93;;;11.33;;
9789;SDS011;4934;50.852;8.098;2024-01-10T14:40:18;32.03;;;11.13;;
9789;SDS011;4934;50.852;8.098;2024-01-10T14:42:43;34.33;;;11.03;;
9789;SDS011;4934;50.852;8.098;2024-01-10T14:45:10;34.30;;;11.50;;
9789;SDS011;4934;50.852;8.098;2024-01-10T14:47:36;35.43;;;12.10;;
9789;SDS011;4934;50.852;8.098;2024-01-10T14:50:01;36.07;;;12.50;;
9789;SDS011;4934;50.852;8.098;2024-01-10T14:52:28;35.17;;;12.40;;
9789;SDS011;4934;50.852;8.098;2024-01-10T14:54:54;32.63;;;11.30;;
9789;SDS011;4934;50.852;8.098;2024-01-10T14:57:20;36.17;;;13.23;;
9789;SDS011;4934;50.852;8.098;2024-01-10T14:59:47;36.63;;;14.10;;
9789;SDS011;4934;50.852;8.098;2024-01-10T15:02:14;41.93;;;13.07;;
9789;SDS011;4934;50.852;8.098;2024-01-10T15:04:41;34.83;;;12.33;;
9789;SDS011;4934;50.852;8.098;2024-01-10T15:07:06;36.30;;;12.67;;
9789;SDS011;4934;50.852;8.098;2024-01-10T15:09:32;34.60;;;12.43;;
9789;SDS011;4934;50.852;8.098;2024-01-10T15:14:28;30.73;;;11.80;;
9789;SDS011;4934;50.852;8.098;2024-01-10T15:16:54;38.67;;;11.87;;
9789;SDS011;4934;50.852;8.098;2024-01-10T15:19:21;34.00;;;11.70;;
9789;SDS011;4934;50.852;8.098;2024-01-10T15:21:47;35.17;;;12.63;;
9789;SDS011;4934;50.852;8.098;2024-01-10T15:24:12;40.70;;;14.33;;